Time;durP1;ratioP1;P1;durP2;ratioP2;P2;SDS_P1;SDS_P2;PMS_P1;PMS_P2;Temp;Humidity;BMP_temperature;BMP_pressure;BME280_temperature;BME280_humidity;BME280_pressure;Samples;Min_cycle;Max_cycle;Signal;HPM_P1;HPM_P2
2023/09/25 00:00:23;;;;;;;4.20;3.90;;;15.30;99.90;;;;;;5020516;28;20220;-68
2023/09/25 00:02:50;;;;;;;4.20;3.90;;;15.30;99.90;;;;;;5007205;28;20213;-68
2023/09/25 00:05:18;;;;;;;4.83;4.40;;;15.20;99.90;;;;;;5012268;28;20721;-69
2023/09/25 00:07:45;;;;;;;4.33;3.93;;;15.10;99.90;;;;;;5026770;28;20201;-69
2023/09/25 00:10:12;;;;;;;4.70;4.30;;;15.00;99.90;;;;;;5026861;28;20300;-69
2023/09/25 00:12:39;;;;;;;4.50;4.17;;;15.10;99.90;;;;;;5026778;28;20312;-69
2023/09/25 00:15:07;;;;;;;4.53;4.20;;;15.00;99.90;;;;;;5026828;28;20304;-68
2023/09/25 00:17:33;;;;;;;3.97;3.77;;;15.10;99.90;;;;;;5026669;28;20304;-68
2023/09/25 00:20:00;;;;;;;4.73;4.33;;;15.10;99.90;;;;;;5026483;28;20282;-68
2023/09/25 00:22:29;;;;;;;5.03;4.00;;;15.10;99.90;;;;;;5026258;28;20224;-68
2023/09/25 00:24:56;;;;;;;3.97;3.77;;;15.10;99.90;;;;;;5026153;28;20299;-68
2023/09/25 00:27:23;;;;;;;5.17;4.10;;;15.00;99.90;;;;;;5026207;28;20205;-68
2023/09/25 00:29:50;;;;;;;4.67;4.03;;;14.90;99.90;;;;;;5024915;28;20270;-67
2023/09/25 00:32:17;;;;;;;4.47;4.00;;;14.90;99.90;;;;;;5014728;28;20308;-68
2023/09/25 00:34:44;;;;;;;6.10;4.53;;;15.00;99.90;;;;;;5025762;28;20267;-68
2023/09/25 00:37:11;;;;;;;4.50;4.17;;;14.80;99.90;;;;;;5022182;28;20284;-68
2023/09/25 00:39:41;;;;;;;4.37;3.97;;;14.90;99.90;;;;;;5026117;28;20287;-68
2023/09/25 00:42:10;;;;;;;5.13;4.47;;;14.90;99.90;;;;;;5026168;28;20197;-68
2023/09/25 00:44:36;;;;;;;4.20;3.90;;;14.80;99.90;;;;;;5026149;28;20289;-68
2023/09/25 00:47:04;;;;;;;4.30;3.90;;;14.80;99.90;;;;;;5026068;28;20335;-68
2023/09/25 00:49:32;;;;;;;4.53;4.23;;;14.70;99.90;;;;;;5025246;28;20211;-68
2023/09/25 00:52:00;;;;;;;4.00;3.80;;;14.70;99.90;;;;;;5025419;28;20814;-68
2023/09/25 00:54:27;;;;;;;5.13;4.80;;;14.60;99.90;;;;;;5025136;28;20267;-68
2023/09/25 00:56:55;;;;;;;4.90;4.60;;;14.60;99.90;;;;;;5025652;28;20295;-68
2023/09/25 00:59:22;;;;;;;4.80;4.50;;;14.60;99.90;;;;;;5025728;28;20632;-68
2023/09/25 01:01:49;;;;;;;5.57;5.17;;;14.70;99.90;;;;;;5025725;28;20650;-69
2023/09/25 01:04:16;;;;;;;5.30;4.90;;;14.70;99.90;;;;;;5026138;28;20644;-69
2023/09/25 01:06:44;;;;;;;4.83;4.43;;;14.70;99.90;;;;;;5025293;28;20212;-68
2023/09/25 01:09:12;;;;;;;6.13;4.80;;;14.80;99.90;;;;;;5025283;28;20200;-68
2023/09/25 01:11:39;;;;;;;5.60;5.10;;;14.80;99.90;;;;;;5025663;28;20240;-68
2023/09/25 01:14:08;;;;;;;5.40;5.00;;;14.80;99.90;;;;;;5025546;28;20304;-68
2023/09/25 01:16:35;;;;;;;5.20;4.80;;;14.80;99.90;;;;;;5025311;28;20611;-68
2023/09/25 01:19:05;;;;;;;5.20;4.87;;;14.80;99.90;;;;;;5025329;28;20311;-68
2023/09/25 01:21:32;;;;;;;5.57;5.10;;;14.80;99.90;;;;;;5025116;28;20201;-68
2023/09/25 01:24:02;;;;;;;4.97;4.67;;;14.50;99.90;;;;;;5025687;28;20304;-69
2023/09/25 01:26:29;;;;;;;5.60;5.20;;;14.60;99.90;;;;;;5024894;28;20209;-69
2023/09/25 01:28:56;;;;;;;5.07;4.77;;;14.60;99.90;;;;;;5024533;28;20330;-69
2023/09/25 01:31:23;;;;;;;5.30;4.80;;;14.60;99.90;;;;;;5018298;28;20323;-68
2023/09/25 01:33:49;;;;;;;5.00;4.60;;;14.70;99.90;;;;;;5025183;28;20317;-68
2023/09/25 01:36:16;;;;;;;4.80;4.47;;;14.70;99.90;;;;;;5025273;28;20270;-69
2023/09/25 01:38:43;;;;;;;5.20;4.90;;;14.70;99.90;;;;;;5024729;28;20314;-69
2023/09/25 01:41:12;;;;;;;4.97;4.57;;;14.60;99.90;;;;;;5024422;28;20201;-69
2023/09/25 01:43:38;;;;;;;5.10;4.80;;;14.60;99.90;;;;;;5024718;28;20216;-69
2023/09/25 01:46:05;;;;;;;4.70;4.40;;;14.50;99.90;;;;;;5024457;28;20219;-69
2023/09/25 01:48:32;;;;;;;5.07;4.73;;;14.50;99.90;;;;;;5024391;28;20299;-68
2023/09/25 01:50:59;;;;;;;5.67;5.10;;;14.50;99.90;;;;;;5024512;28;20228;-69
2023/09/25 01:53:26;;;;;;;5.47;5.00;;;14.50;99.90;;;;;;5024007;28;20327;-68
2023/09/25 01:55:53;;;;;;;4.80;4.50;;;14.40;99.90;;;;;;5024657;28;20303;-68
2023/09/25 01:58:22;;;;;;;5.10;4.70;;;14.50;99.90;;;;;;5024540;28;20232;-68
2023/09/25 02:00:49;;;;;;;5.10;4.67;;;14.50;99.90;;;;;;5027227;28;20209;-68
2023/09/25 02:03:16;;;;;;;5.03;4.73;;;14.50;99.90;;;;;;5028799;28;20300;-68
2023/09/25 02:05:44;;;;;;;5.07;4.67;;;14.40;99.90;;;;;;5028405;28;20560;-67
2023/09/25 02:08:11;;;;;;;5.20;4.70;;;14.50;99.90;;;;;;5028297;28;20667;-67
2023/09/25 02:10:38;;;;;;;4.83;4.50;;;14.50;99.90;;;;;;5027929;28;20678;-67
2023/09/25 02:13:05;;;;;;;4.90;4.50;;;14.50;99.90;;;;;;5027890;28;20714;-67
2023/09/25 02:15:34;;;;;;;4.80;4.50;;;14.40;99.90;;;;;;5027792;28;20208;-67
2023/09/25 02:18:01;;;;;;;5.33;4.93;;;14.40;99.90;;;;;;5028259;28;20208;-68
2023/09/25 02:20:30;;;;;;;4.80;4.50;;;14.40;99.90;;;;;;5028193;28;20227;-68
2023/09/25 02:22:56;;;;;;;5.13;4.57;;;14.40;99.90;;;;;;5028374;28;20556;-68
2023/09/25 02:25:23;;;;;;;4.77;4.30;;;14.50;99.90;;;;;;5028421;28;20205;-73
2023/09/25 02:27:50;;;;;;;5.30;4.80;;;14.50;99.90;;;;;;5028105;28;20231;-68
2023/09/25 02:30:17;;;;;;;4.60;4.30;;;14.50;99.90;;;;;;5027817;28;20316;-67
2023/09/25 02:32:46;;;;;;;4.77;4.47;;;14.50;99.90;;;;;;5016410;28;20713;-68
2023/09/25 02:35:13;;;;;;;4.40;4.10;;;14.50;99.90;;;;;;5019992;28;20219;-68
2023/09/25 02:37:40;;;;;;;5.30;4.80;;;14.40;99.90;;;;;;5026101;28;20254;-68
2023/09/25 02:40:09;;;;;;;4.83;4.50;;;14.30;99.90;;;;;;5026304;28;20208;-68
2023/09/25 02:42:36;;;;;;;4.97;4.67;;;14.40;99.90;;;;;;5015003;28;20275;-69
2023/09/25 02:45:03;;;;;;;4.13;3.93;;;14.40;99.90;;;;;;5013995;28;20231;-69
2023/09/25 02:47:30;;;;;;;5.00;4.60;;;14.40;99.90;;;;;;5026228;28;20212;-69
2023/09/25 02:49:58;;;;;;;4.87;4.57;;;14.40;99.90;;;;;;5026486;28;20292;-69
2023/09/25 02:52:25;;;;;;;4.83;4.50;;;14.30;99.90;;;;;;5026103;28;20315;-68
2023/09/25 02:54:52;;;;;;;4.80;4.50;;;14.30;99.90;;;;;;5026252;28;20221;-69
2023/09/25 02:57:19;;;;;;;5.23;4.83;;;14.30;99.90;;;;;;5026131;28;20209;-68
2023/09/25 02:59:45;;;;;;;4.97;4.57;;;14.30;99.90;;;;;;5025657;28;20217;-69
2023/09/25 03:02:12;;;;;;;6.33;5.83;;;14.30;99.90;;;;;;5006397;28;20664;-69
2023/09/25 03:04:39;;;;;;;5.60;5.20;;;14.30;99.90;;;;;;5017609;28;20453;-69
2023/09/25 03:07:08;;;;;;;4.83;4.53;;;14.30;99.90;;;;;;5025992;28;20587;-69
2023/09/25 03:09:35;;;;;;;5.70;5.30;;;14.40;99.90;;;;;;5025970;28;20214;-68
2023/09/25 03:12:02;;;;;;;5.27;4.97;;;14.40;99.90;;;;;;5025158;28;20343;-69
2023/09/25 03:14:29;;;;;;;5.50;5.10;;;14.40;99.90;;;;;;5025698;28;20216;-68
2023/09/25 03:16:56;;;;;;;5.87;5.27;;;14.30;99.90;;;;;;5024647;28;20240;-68
2023/09/25 03:19:23;;;;;;;5.93;5.50;;;14.30;99.90;;;;;;5027456;28;20284;-69
2023/09/25 03:21:49;;;;;;;5.60;5.20;;;14.30;99.90;;;;;;5027103;28;20244;-68
2023/09/25 03:24:18;;;;;;;6.00;5.50;;;14.30;99.90;;;;;;5027291;28;20292;-69
2023/09/25 03:26:45;;;;;;;5.77;5.27;;;14.20;99.90;;;;;;5016042;28;20256;-69
2023/09/25 03:29:11;;;;;;;5.70;5.30;;;14.30;99.90;;;;;;5007510;28;20289;-68
2023/09/25 03:31:38;;;;;;;5.63;5.33;;;14.20;99.90;;;;;;5023133;28;20239;-68
2023/09/25 03:34:05;;;;;;;5.80;5.40;;;14.20;99.90;;;;;;5027261;28;20275;-68
2023/09/25 03:36:32;;;;;;;5.57;5.17;;;14.20;99.90;;;;;;5027153;28;20311;-69
2023/09/25 03:38:59;;;;;;;5.53;5.17;;;14.20;99.90;;;;;;5027128;28;20220;-68
2023/09/25 03:41:27;;;;;;;6.07;5.50;;;14.20;99.90;;;;;;5026851;28;20228;-69
2023/09/25 03:43:54;;;;;;;5.47;4.97;;;14.20;99.90;;;;;;5026714;28;20863;-68
2023/09/25 03:46:21;;;;;;;5.23;4.83;;;14.10;99.90;;;;;;5026782;28;20239;-69
2023/09/25 03:48:48;;;;;;;5.60;5.30;;;14.10;99.90;;;;;;5027096;28;20205;-68
2023/09/25 03:51:15;;;;;;;5.53;5.03;;;14.10;99.90;;;;;;5026902;28;20228;-69
2023/09/25 03:53:42;;;;;;;5.30;4.90;;;14.10;99.90;;;;;;5026438;28;20336;-68
2023/09/25 03:56:09;;;;;;;5.93;5.43;;;14.10;99.90;;;;;;5026677;28;20307;-68
2023/09/25 03:58:37;;;;;;;5.20;4.80;;;14.10;99.90;;;;;;5026229;28;20235;-68
2023/09/25 04:01:04;;;;;;;5.80;5.40;;;14.10;99.90;;;;;;5026197;28;20209;-68
2023/09/25 04:03:31;;;;;;;5.80;5.40;;;14.10;99.90;;;;;;5026549;28;20296;-69
2023/09/25 04:05:58;;;;;;;6.00;5.50;;;14.10;99.90;;;;;;5026383;28;20212;-68
2023/09/25 04:08:24;;;;;;;6.50;5.90;;;14.00;99.90;;;;;;5026343;28;20288;-69
2023/09/25 04:10:52;;;;;;;6.67;6.07;;;14.00;99.90;;;;;;5026291;28;20299;-69
2023/09/25 04:13:22;;;;;;;6.50;6.00;;;14.00;99.90;;;;;;5026098;28;20240;-69
2023/09/25 04:15:50;;;;;;;6.70;6.20;;;14.00;99.90;;;;;;5026340;28;20228;-69
2023/09/25 04:18:18;;;;;;;6.20;5.80;;;14.00;99.90;;;;;;5026243;28;20387;-68
2023/09/25 04:20:45;;;;;;;6.77;6.13;;;14.00;99.90;;;;;;5026098;28;20209;-68
2023/09/25 04:23:14;;;;;;;7.20;6.47;;;14.00;99.90;;;;;;5024652;28;20267;-68
2023/09/25 04:25:41;;;;;;;6.50;6.00;;;14.00;99.90;;;;;;5025906;28;20319;-69
2023/09/25 04:28:08;;;;;;;6.50;6.00;;;14.00;99.90;;;;;;5025824;28;20307;-68
2023/09/25 04:30:34;;;;;;;6.77;6.27;;;14.00;99.90;;;;;;5025432;28;20247;-69
2023/09/25 04:33:03;;;;;;;6.50;6.00;;;14.00;99.90;;;;;;5025331;28;20240;-69
2023/09/25 04:35:30;;;;;;;6.10;5.67;;;14.00;99.90;;;;;;5025216;28;20684;-69
2023/09/25 04:37:57;;;;;;;6.90;6.30;;;14.00;99.90;;;;;;5025450;28;20209;-68
2023/09/25 04:40:24;;;;;;;6.70;6.20;;;14.00;99.90;;;;;;5025340;28;20311;-68
2023/09/25 04:42:52;;;;;;;7.70;6.63;;;13.90;99.90;;;;;;5025481;28;20697;-69
2023/09/25 04:45:20;;;;;;;6.57;6.17;;;13.90;99.90;;;;;;5025251;28;20208;-69
2023/09/25 04:47:48;;;;;;;6.57;6.07;;;13.90;99.90;;;;;;5025359;28;20750;-68
2023/09/25 04:50:16;;;;;;;6.93;6.43;;;13.90;99.90;;;;;;5025435;28;20237;-68
2023/09/25 04:52:44;;;;;;;6.47;5.97;;;13.90;99.90;;;;;;5024932;28;20258;-69
2023/09/25 04:55:12;;;;;;;6.80;6.30;;;13.90;99.90;;;;;;5025189;28;20197;-68
2023/09/25 04:57:40;;;;;;;6.77;6.30;;;13.90;99.90;;;;;;5025362;28;20375;-69
2023/09/25 05:00:14;;;;;;;6.97;6.37;;;13.80;99.90;;;;;;5025227;28;20216;-69
2023/09/25 05:02:41;;;;;;;6.83;6.40;;;13.70;99.90;;;;;;5024676;28;20201;-68
2023/09/25 05:05:08;;;;;;;7.03;6.43;;;13.70;99.90;;;;;;5025062;28;20208;-69
2023/09/25 05:07:37;;;;;;;6.70;6.30;;;13.80;99.90;;;;;;5024790;28;20240;-69
2023/09/25 05:10:05;;;;;;;6.57;6.13;;;13.80;99.90;;;;;;5025004;28;20213;-69
2023/09/25 05:12:32;;;;;;;6.67;6.17;;;13.80;99.90;;;;;;5025056;28;20349;-69
2023/09/25 05:14:59;;;;;;;7.33;6.67;;;13.80;99.90;;;;;;5024411;28;20809;-68
2023/09/25 05:17:26;;;;;;;7.13;6.53;;;13.80;99.90;;;;;;5024318;28;20293;-69
2023/09/25 05:19:53;;;;;;;7.27;6.70;;;13.80;99.90;;;;;;5025035;28;20834;-69
2023/09/25 05:22:19;;;;;;;7.33;6.53;;;13.80;99.90;;;;;;5025302;28;20262;-68
2023/09/25 05:24:48;;;;;;;6.83;6.33;;;13.80;99.90;;;;;;5025547;28;20212;-68
2023/09/25 05:27:16;;;;;;;8.60;6.83;;;13.80;99.90;;;;;;5024755;28;20564;-68
2023/09/25 05:29:45;;;;;;;7.10;6.50;;;13.80;99.90;;;;;;5024662;28;20219;-68
2023/09/25 05:32:12;;;;;;;7.07;6.37;;;13.80;99.90;;;;;;5005128;28;20324;-69
2023/09/25 05:34:38;;;;;;;7.13;6.53;;;13.80;99.90;;;;;;5004752;28;20284;-68
2023/09/25 05:37:06;;;;;;;7.40;6.90;;;13.80;99.90;;;;;;5005327;28;20297;-69
2023/09/25 05:39:32;;;;;;;6.80;6.30;;;13.80;99.90;;;;;;5004876;28;20569;-68
2023/09/25 05:42:01;;;;;;;6.77;6.20;;;13.80;99.90;;;;;;5004921;28;20209;-69
2023/09/25 05:44:28;;;;;;;6.87;6.27;;;13.80;99.90;;;;;;5004934;28;20220;-68
2023/09/25 05:46:55;;;;;;;8.33;6.90;;;13.80;99.90;;;;;;5004767;28;20668;-69
2023/09/25 05:49:22;;;;;;;7.30;6.70;;;13.80;99.90;;;;;;5004625;28;20652;-70
2023/09/25 05:51:53;;;;;;;7.37;6.67;;;13.80;99.90;;;;;;5004748;28;20209;-69
2023/09/25 05:54:20;;;;;;;7.00;6.43;;;13.80;99.90;;;;;;5004698;28;20248;-68
2023/09/25 05:56:47;;;;;;;6.90;6.30;;;13.80;99.90;;;;;;5005394;28;20298;-68
2023/09/25 05:59:16;;;;;;;7.40;6.80;;;13.80;99.90;;;;;;5004714;28;20296;-68
2023/09/25 06:01:43;;;;;;;7.40;6.80;;;13.70;99.90;;;;;;5020862;28;20213;-68
2023/09/25 06:04:10;;;;;;;7.27;6.77;;;13.80;99.90;;;;;;5025175;28;20216;-69
2023/09/25 06:06:37;;;;;;;7.33;6.73;;;13.80;99.90;;;;;;5024367;28;20259;-68
2023/09/25 06:09:08;;;;;;;7.60;6.93;;;13.70;99.90;;;;;;5024814;28;20215;-68
2023/09/25 06:11:38;;;;;;;7.40;6.80;;;13.70;99.90;;;;;;5013774;28;20298;-68
2023/09/25 06:14:05;;;;;;;6.83;6.37;;;13.70;99.90;;;;;;5009526;28;20236;-68
2023/09/25 06:16:33;;;;;;;7.10;6.50;;;13.80;99.90;;;;;;5024401;28;20296;-68
2023/09/25 06:19:00;;;;;;;7.10;6.50;;;13.80;99.90;;;;;;5024557;28;20299;-68
2023/09/25 06:21:27;;;;;;;7.10;6.53;;;13.80;99.90;;;;;;5024367;28;20215;-68
2023/09/25 06:23:54;;;;;;;7.60;7.00;;;13.80;99.90;;;;;;5024427;28;20710;-68
2023/09/25 06:26:22;;;;;;;7.93;7.23;;;13.90;99.90;;;;;;5024208;28;20221;-69
2023/09/25 06:28:48;;;;;;;7.33;6.80;;;13.90;99.90;;;;;;5024035;28;20208;-68
2023/09/25 06:31:16;;;;;;;7.40;6.80;;;13.90;99.90;;;;;;5023981;28;20219;-68
2023/09/25 06:33:45;;;;;;;7.60;7.00;;;14.00;99.90;;;;;;5024786;28;20247;-69
2023/09/25 06:36:12;;;;;;;7.93;7.23;;;14.00;99.90;;;;;;5024648;28;20212;-68
2023/09/25 06:38:39;;;;;;;8.03;7.37;;;14.10;99.90;;;;;;5024356;28;20209;-68
2023/09/25 06:41:06;;;;;;;7.73;7.07;;;14.10;99.90;;;;;;5024271;28;20741;-68
2023/09/25 06:43:33;;;;;;;8.20;7.43;;;14.10;99.90;;;;;;5024004;28;20643;-69
2023/09/25 06:46:00;;;;;;;8.10;7.50;;;14.20;99.90;;;;;;5024352;28;20241;-68
2023/09/25 06:48:27;;;;;;;8.30;7.60;;;14.20;99.90;;;;;;5027465;28;20204;-68
2023/09/25 06:50:55;;;;;;;7.80;7.13;;;14.20;99.90;;;;;;5027862;28;20209;-68
2023/09/25 06:53:22;;;;;;;8.23;6.80;;;14.30;99.90;;;;;;5027291;28;20241;-69
2023/09/25 06:55:48;;;;;;;6.93;6.23;;;14.30;99.90;;;;;;5027829;28;20315;-68
2023/09/25 06:58:16;;;;;;;7.37;6.77;;;14.30;99.90;;;;;;5027924;28;20224;-69
2023/09/25 07:00:46;;;;;;;6.60;6.10;;;14.40;99.90;;;;;;5027320;28;20227;-68
2023/09/25 07:03:13;;;;;;;7.20;6.53;;;14.40;99.90;;;;;;5027417;28;20201;-69
2023/09/25 07:05:40;;;;;;;6.17;5.67;;;14.50;99.90;;;;;;5027580;28;20234;-69
2023/09/25 07:08:09;;;;;;;6.80;6.00;;;14.60;99.90;;;;;;5027010;28;20211;-69
2023/09/25 07:10:36;;;;;;;6.40;5.90;;;14.70;99.90;;;;;;5025300;28;20208;-68
2023/09/25 07:13:03;;;;;;;6.07;5.57;;;14.70;99.90;;;;;;5007765;28;20347;-69
2023/09/25 07:15:30;;;;;;;6.33;5.83;;;14.80;99.90;;;;;;5007475;28;20264;-69
2023/09/25 07:17:57;;;;;;;5.90;5.50;;;14.80;99.90;;;;;;5007470;28;20281;-69
2023/09/25 07:20:25;;;;;;;5.87;5.47;;;14.90;99.90;;;;;;5007404;28;20320;-68
2023/09/25 07:22:52;;;;;;;6.27;5.70;;;14.90;99.90;;;;;;5007017;28;20224;-69
2023/09/25 07:25:20;;;;;;;5.90;5.40;;;15.00;99.90;;;;;;5007110;28;20984;-69
2023/09/25 07:27:47;;;;;;;5.07;4.57;;;15.10;99.90;;;;;;5026471;28;20205;-69
2023/09/25 07:30:14;;;;;;;5.27;4.87;;;15.20;99.90;;;;;;5026717;28;20295;-68
2023/09/25 07:32:42;;;;;;;5.40;4.90;;;15.30;99.90;;;;;;5026976;28;20267;-69
2023/09/25 07:35:10;;;;;;;5.60;4.43;;;15.40;99.90;;;;;;5027073;28;20224;-69
2023/09/25 07:37:37;;;;;;;4.73;4.33;;;15.50;99.90;;;;;;5027131;28;20219;-68
2023/09/25 07:40:09;;;;;;;5.17;4.67;;;15.60;99.90;;;;;;5027214;28;20328;-69
2023/09/25 07:42:38;;;;;;;4.83;4.20;;;15.60;99.90;;;;;;5027321;28;20201;-68
2023/09/25 07:45:09;;;;;;;4.87;4.37;;;15.70;99.90;;;;;;5026794;28;20215;-69
2023/09/25 07:47:38;;;;;;;4.20;3.90;;;15.80;99.90;;;;;;5026426;28;20283;-68
2023/09/25 07:50:10;;;;;;;4.57;4.20;;;15.80;99.90;;;;;;5026555;28;20676;-69
2023/09/25 07:52:38;;;;;;;4.80;4.33;;;15.90;99.90;;;;;;5026423;28;20288;-69
2023/09/25 07:55:06;;;;;;;4.07;3.70;;;16.00;99.90;;;;;;5026706;28;20727;-68
2023/09/25 07:57:35;;;;;;;4.30;3.73;;;16.10;99.90;;;;;;5026529;28;20235;-69
2023/09/25 08:00:10;;;;;;;8.63;3.80;;;16.20;99.90;;;;;;5026316;28;20328;-69
2023/09/25 08:02:39;;;;;;;4.30;3.77;;;16.20;99.90;;;;;;5026392;28;20197;-69
2023/09/25 08:05:07;;;;;;;4.50;3.90;;;16.30;99.90;;;;;;5026201;28;20667;-68
2023/09/25 08:07:34;;;;;;;4.60;4.20;;;16.30;99.90;;;;;;5023566;28;20219;-69
2023/09/25 08:10:01;;;;;;;3.47;3.23;;;16.30;99.90;;;;;;5026708;28;20299;-69
2023/09/25 08:12:28;;;;;;;4.03;3.50;;;16.40;99.90;;;;;;5026182;28;20738;-69
2023/09/25 08:14:56;;;;;;;3.47;3.27;;;16.40;99.90;;;;;;5026280;28;20813;-68
2023/09/25 08:17:25;;;;;;;3.63;3.33;;;16.50;99.90;;;;;;5026194;28;20674;-69
2023/09/25 08:19:52;;;;;;;3.83;3.20;;;16.60;99.90;;;;;;5026510;28;20248;-69
2023/09/25 08:22:20;;;;;;;3.13;2.90;;;16.60;99.90;;;;;;5026316;28;20212;-69
2023/09/25 08:24:47;;;;;;;3.27;2.97;;;16.70;99.90;;;;;;5026486;28;20319;-69
2023/09/25 08:27:15;;;;;;;3.90;3.60;;;16.80;99.90;;;;;;5026180;28;20215;-70
2023/09/25 08:29:42;;;;;;;3.27;2.97;;;16.90;99.90;;;;;;5025796;28;20300;-69
2023/09/25 08:32:09;;;;;;;3.37;3.07;;;16.90;99.90;;;;;;5025808;28;20565;-69
2023/09/25 08:34:37;;;;;;;4.33;2.60;;;17.00;99.90;;;;;;5025299;28;20324;-69
2023/09/25 08:37:05;;;;;;;4.37;3.60;;;17.10;99.90;;;;;;5025829;28;20223;-69
2023/09/25 08:39:32;;;;;;;3.47;3.17;;;17.20;99.90;;;;;;5025916;28;20201;-69
2023/09/25 08:41:59;;;;;;;3.00;2.80;;;17.30;99.90;;;;;;5025345;28;20244;-69
2023/09/25 08:44:26;;;;;;;3.33;3.03;;;17.30;99.90;;;;;;5025150;28;20296;-68
2023/09/25 08:46:53;;;;;;;3.03;2.83;;;17.40;99.90;;;;;;5025216;28;20209;-69
2023/09/25 08:49:20;;;;;;;4.70;3.07;;;17.50;99.90;;;;;;5025644;28;20216;-69
2023/09/25 08:51:48;;;;;;;4.43;2.50;;;17.50;99.90;;;;;;5025335;28;20208;-69
2023/09/25 08:54:15;;;;;;;3.20;3.00;;;17.60;99.90;;;;;;5025307;28;20290;-69
2023/09/25 08:56:43;;;;;;;3.77;3.07;;;17.70;99.90;;;;;;5025542;28;20235;-69
2023/09/25 08:59:12;;;;;;;3.10;2.90;;;17.70;99.90;;;;;;5025420;28;20378;-68
2023/09/25 09:01:39;;;;;;;3.27;2.90;;;17.80;99.90;;;;;;5025167;28;20300;-69
2023/09/25 09:04:07;;;;;;;3.00;2.80;;;17.90;99.90;;;;;;5024985;28;20307;-69
2023/09/25 09:06:34;;;;;;;3.20;2.87;;;17.90;99.90;;;;;;5025146;28;20213;-69
2023/09/25 09:09:02;;;;;;;3.50;2.37;;;18.10;99.90;;;;;;5024918;28;20219;-69
2023/09/25 09:11:29;;;;;;;3.30;2.53;;;18.10;99.90;;;;;;5025150;28;20674;-68
2023/09/25 09:13:58;;;;;;;3.43;2.77;;;18.20;99.90;;;;;;5025148;28;20290;-69
2023/09/25 09:16:24;;;;;;;3.73;3.00;;;18.20;99.90;;;;;;5025221;28;20216;-69
2023/09/25 09:19:06;;;;;;;4.20;2.80;;;18.30;99.90;;;;;;5025277;28;20324;-69
2023/09/25 09:21:33;;;;;;;3.50;2.87;;;18.40;99.90;;;;;;5024850;28;20201;-68
2023/09/25 09:24:01;;;;;;;2.77;2.53;;;18.40;99.90;;;;;;5024506;28;20857;-69
2023/09/25 09:26:30;;;;;;;3.70;2.90;;;18.50;99.90;;;;;;5024776;28;20219;-69
2023/09/25 09:28:57;;;;;;;2.67;2.47;;;18.60;99.90;;;;;;5024924;28;20215;-69
2023/09/25 09:31:24;;;;;;;6.23;2.70;;;18.70;99.90;;;;;;5024900;28;20331;-69
2023/09/25 09:33:55;;;;;;;2.77;2.43;;;18.80;99.90;;;;;;5024582;28;20292;-69
2023/09/25 09:36:23;;;;;;;2.60;2.40;;;18.80;99.90;;;;;;5024463;28;20284;-69
2023/09/25 09:38:52;;;;;;;2.53;2.37;;;18.90;99.90;;;;;;5024463;28;20217;-69
2023/09/25 09:41:22;;;;;;;3.33;3.03;;;19.00;99.90;;;;;;5024639;28;20343;-69
2023/09/25 09:43:49;;;;;;;2.87;2.60;;;19.00;99.90;;;;;;5024444;28;20872;-69
2023/09/25 09:46:17;;;;;;;2.60;2.40;;;19.10;99.90;;;;;;5024556;28;20240;-69
2023/09/25 09:48:46;;;;;;;2.60;2.50;;;19.20;99.90;;;;;;5024993;28;20400;-69
2023/09/25 09:51:16;;;;;;;3.30;2.57;;;19.30;99.90;;;;;;5024735;28;20299;-67
2023/09/25 09:53:44;;;;;;;2.80;2.30;;;19.40;99.90;;;;;;5024291;28;20249;-67
2023/09/25 09:56:11;;;;;;;3.00;2.70;;;19.50;99.90;;;;;;5024101;28;20695;-67
2023/09/25 09:58:40;;;;;;;2.50;2.30;;;19.60;99.90;;;;;;5023724;28;20214;-67
2023/09/25 10:01:07;;;;;;;3.07;2.30;;;19.70;99.90;;;;;;5024114;28;20299;-67
2023/09/25 10:03:34;;;;;;;2.50;2.13;;;19.70;99.90;;;;;;5024172;28;20300;-67
2023/09/25 10:06:01;;;;;;;3.60;2.40;;;19.90;99.90;;;;;;5024220;28;20217;-69
2023/09/25 10:08:29;;;;;;;2.90;2.70;;;19.90;99.90;;;;;;5023620;28;20308;-69
2023/09/25 10:11:16;;;;;;;2.45;2.08;;;20.00;99.90;;;;;;5023785;28;20299;-69
2023/09/25 10:13:44;;;;;;;4.53;2.77;;;20.00;99.90;;;;;;5023788;28;20227;-69
2023/09/25 10:16:12;;;;;;;2.80;2.60;;;20.10;99.90;;;;;;5024072;28;20626;-69
2023/09/25 10:18:39;;;;;;;2.33;2.20;;;20.20;99.90;;;;;;5024076;28;20315;-69
2023/09/25 10:21:13;;;;;;;2.90;2.67;;;20.30;99.90;;;;;;5025780;28;20573;-69
2023/09/25 10:23:42;;;;;;;2.33;2.13;;;20.40;99.90;;;;;;5028419;28;20201;-69
2023/09/25 10:26:17;;;;;;;2.27;2.07;;;20.50;99.90;;;;;;5028198;28;20565;-69
2023/09/25 10:28:46;;;;;;;2.15;1.85;;;20.50;99.90;;;;;;5027911;28;20197;-69
2023/09/25 10:31:25;;;;;;;2.13;2.03;;;20.70;99.90;;;;;;5028373;28;20223;-69
2023/09/25 10:33:57;;;;;;;2.28;2.10;;;20.70;99.90;;;;;;5028444;28;20585;-69
2023/09/25 10:36:36;;;;;;;2.75;2.55;;;20.80;99.90;;;;;;5028284;28;20209;-69
2023/09/25 10:39:07;;;;;;;2.53;2.30;;;21.00;99.90;;;;;;5028149;28;20652;-69
2023/09/25 10:41:34;;;;;;;2.83;2.40;;;21.10;99.90;;;;;;5028126;28;20201;-69
2023/09/25 10:44:03;;;;;;;2.75;2.40;;;21.20;99.90;;;;;;5027931;28;20220;-69
2023/09/25 10:46:30;;;;;;;2.38;2.17;;;21.30;99.90;;;;;;5027969;28;20209;-69
2023/09/25 10:48:58;;;;;;;2.63;2.30;;;21.40;99.90;;;;;;5028065;28;20235;-69
2023/09/25 10:51:24;;;;;;;2.50;2.20;;;21.60;99.90;;;;;;5027312;28;20714;-69
2023/09/25 10:53:51;;;;;;;3.45;2.80;;;21.60;99.90;;;;;;5027238;28;20896;-69
2023/09/25 10:56:18;;;;;;;2.38;2.17;;;21.70;99.90;;;;;;5027302;28;20301;-69
2023/09/25 10:58:47;;;;;;;2.30;2.20;;;21.80;99.90;;;;;;5027321;28;20197;-69
2023/09/25 11:01:16;;;;;;;2.15;2.05;;;22.00;99.90;;;;;;5027366;28;20674;-69
2023/09/25 11:03:42;;;;;;;2.30;2.20;;;22.00;99.90;;;;;;5027674;28;20303;-69
2023/09/25 11:06:10;;;;;;;2.50;2.30;;;22.10;99.90;;;;;;5027694;28;20752;-69
2023/09/25 11:08:36;;;;;;;2.25;2.15;;;22.20;99.90;;;;;;5027605;28;20313;-69
2023/09/25 11:11:03;;;;;;;4.38;2.40;;;22.30;99.90;;;;;;5027583;28;20284;-69
2023/09/25 11:13:31;;;;;;;2.13;1.98;;;22.40;99.90;;;;;;5027292;28;20232;-69
2023/09/25 11:16:00;;;;;;;2.25;2.15;;;22.50;99.90;;;;;;5027092;28;20232;-69
2023/09/25 11:18:28;;;;;;;3.60;2.22;;;22.50;99.90;;;;;;5027199;28;20231;-69
2023/09/25 11:20:57;;;;;;;2.30;2.20;;;22.60;99.90;;;;;;5027002;28;20219;-69
2023/09/25 11:23:24;;;;;;;4.65;2.20;;;22.70;99.90;;;;;;5026883;28;20212;-69
2023/09/25 11:25:52;;;;;;;2.00;1.90;;;22.80;99.90;;;;;;5027059;28;20436;-69
2023/09/25 11:28:21;;;;;;;2.25;1.90;;;22.80;99.90;;;;;;5027028;28;20847;-69
2023/09/25 11:30:48;;;;;;;2.13;2.03;;;22.90;99.90;;;;;;5026831;28;20205;-69
2023/09/25 11:33:18;;;;;;;2.10;2.00;;;23.00;99.90;;;;;;5026463;28;20232;-69
2023/09/25 11:35:49;;;;;;;1.90;1.80;;;23.10;99.90;;;;;;5026886;28;20224;-69
2023/09/25 11:38:18;;;;;;;2.35;2.15;;;23.20;99.90;;;;;;5027159;28;20201;-69
2023/09/25 11:40:46;;;;;;;1.80;1.65;;;23.20;99.90;;;;;;5026714;28;20591;-69
2023/09/25 11:43:13;;;;;;;2.03;1.92;;;23.20;99.90;;;;;;5027117;28;20240;-69
2023/09/25 11:45:41;;;;;;;2.05;1.80;;;23.30;99.90;;;;;;5026856;28;20650;-69
2023/09/25 11:48:09;;;;;;;1.83;1.73;;;23.40;99.90;;;;;;5026959;28;20304;-69
2023/09/25 11:50:37;;;;;;;3.45;1.80;;;23.50;99.90;;;;;;5026378;28;20212;-69
2023/09/25 11:53:06;;;;;;;2.38;1.73;;;23.60;99.90;;;;;;5026089;28;20327;-69
2023/09/25 11:55:33;;;;;;;3.25;1.85;;;23.80;99.90;;;;;;5026506;28;20220;-69
2023/09/25 11:58:01;;;;;;;2.60;1.95;;;23.80;99.90;;;;;;5026571;28;20209;-69
2023/09/25 12:00:28;;;;;;;1.95;1.85;;;24.00;99.90;;;;;;5026213;28;20217;-69
2023/09/25 12:02:56;;;;;;;2.40;1.77;;;24.10;99.90;;;;;;5026343;28;20209;-69
2023/09/25 12:05:24;;;;;;;2.50;2.30;;;24.10;99.90;;;;;;5026100;28;20737;-69
2023/09/25 12:07:51;;;;;;;1.95;1.85;;;24.10;99.90;;;;;;5026370;28;20209;-69
2023/09/25 12:10:20;;;;;;;2.17;1.77;;;24.20;99.90;;;;;;5026251;28;20258;-69
2023/09/25 12:12:48;;;;;;;1.85;1.75;;;24.30;99.90;;;;;;5026635;28;20310;-69
2023/09/25 12:15:16;;;;;;;2.63;1.88;;;24.30;99.90;;;;;;5025992;28;20229;-69
2023/09/25 12:17:44;;;;;;;1.75;1.65;;;24.40;99.90;;;;;;5026611;28;20678;-69
2023/09/25 12:20:12;;;;;;;2.75;1.73;;;24.60;99.60;;;;;;5026614;28;20236;-69
2023/09/25 12:22:40;;;;;;;1.98;1.58;;;24.60;99.50;;;;;;5026226;28;20216;-69
2023/09/25 12:25:11;;;;;;;1.70;1.60;;;24.70;99.40;;;;;;5026228;28;20283;-69
2023/09/25 12:27:41;;;;;;;1.83;1.73;;;24.80;99.30;;;;;;5025722;28;20656;-69
2023/09/25 12:30:10;;;;;;;2.75;1.70;;;24.90;99.40;;;;;;5025392;28;20216;-70
2023/09/25 12:32:37;;;;;;;2.03;1.73;;;24.90;99.30;;;;;;5025757;28;20594;-69
2023/09/25 12:35:04;;;;;;;2.97;1.70;;;24.90;98.70;;;;;;5025534;28;20228;-69
2023/09/25 12:37:31;;;;;;;1.70;1.60;;;25.00;98.70;;;;;;5024956;28;20766;-69
2023/09/25 12:39:58;;;;;;;3.15;1.85;;;25.10;98.90;;;;;;5025579;28;20212;-69
2023/09/25 12:42:25;;;;;;;1.98;1.60;;;25.10;98.60;;;;;;5025483;28;20291;-69
2023/09/25 12:44:53;;;;;;;1.60;1.50;;;25.10;98.60;;;;;;5024339;28;20318;-69
2023/09/25 12:47:21;;;;;;;1.83;1.73;;;25.20;99.10;;;;;;5025208;28;20677;-69
2023/09/25 12:49:49;;;;;;;2.75;1.60;;;25.30;98.80;;;;;;5025118;28;20209;-69